Time;durP1;ratioP1;P1;durP2;ratioP2;P2;SDS_P1;SDS_P2;PMS_P1;PMS_P2;Temp;Humidity;BMP_temperature;BMP_pressure;BME280_temperature;BME280_humidity;BME280_pressure;Samples;Min_cycle;Max_cycle;Signal;HPM_P1;HPM_P2
2024/03/07 00:02:06;;;;;;;26.42;10.82;;;9.80;99.90;;;;;;5020988;28;20030;-86
2024/03/07 00:04:32;;;;;;;23.60;11.68;;;9.70;99.90;;;;;;5032009;28;20112;-85
2024/03/07 00:06:57;;;;;;;24.15;11.40;;;9.80;99.90;;;;;;5041901;28;20033;-86
2024/03/07 00:09:24;;;;;;;30.67;12.80;;;9.80;99.90;;;;;;5013745;28;20475;-86
2024/03/07 00:11:50;;;;;;;28.90;12.27;;;9.70;99.90;;;;;;5011364;28;20022;-86
2024/03/07 00:14:16;;;;;;;27.77;12.77;;;9.80;99.90;;;;;;5012327;28;20466;-87
2024/03/07 00:16:41;;;;;;;25.13;12.13;;;9.80;99.90;;;;;;5011783;28;20049;-85
2024/03/07 00:19:07;;;;;;;33.13;13.18;;;9.80;99.90;;;;;;5029286;28;20554;-86
2024/03/07 00:21:32;;;;;;;28.02;12.27;;;9.80;99.90;;;;;;5013236;28;20108;-86
2024/03/07 00:23:59;;;;;;;30.83;13.23;;;9.80;99.90;;;;;;5010697;28;20025;-86
2024/03/07 00:26:25;;;;;;;31.42;13.85;;;9.70;99.90;;;;;;5017210;28;20017;-87
2024/03/07 00:28:51;;;;;;;28.63;14.63;;;9.80;99.90;;;;;;5008000;28;20026;-87
2024/03/07 00:31:16;;;;;;;35.55;13.07;;;9.70;99.90;;;;;;5031594;28;20020;-86
2024/03/07 00:33:42;;;;;;;30.75;13.50;;;9.80;99.90;;;;;;5033831;28;20032;-85
2024/03/07 00:36:08;;;;;;;32.17;15.18;;;9.70;99.90;;;;;;5016620;28;20018;-86
2024/03/07 00:38:34;;;;;;;29.33;13.65;;;9.70;99.90;;;;;;5026177;28;20024;-87
2024/03/07 00:41:00;;;;;;;31.10;14.10;;;9.70;99.90;;;;;;5036014;28;20025;-86
2024/03/07 00:43:26;;;;;;;29.27;13.75;;;9.80;99.90;;;;;;5015333;28;20376;-85
2024/03/07 00:45:51;;;;;;;33.05;14.65;;;9.80;99.90;;;;;;5012745;28;20010;-86
2024/03/07 00:48:17;;;;;;;34.95;14.38;;;9.70;99.90;;;;;;5011168;28;20029;-85
2024/03/07 00:50:43;;;;;;;31.27;14.50;;;9.80;99.90;;;;;;5005431;28;20024;-84
2024/03/07 00:53:09;;;;;;;35.70;14.98;;;9.70;99.90;;;;;;5009420;28;20033;-85
2024/03/07 00:55:34;;;;;;;36.35;14.40;;;9.80;99.90;;;;;;5019410;28;20144;-86
2024/03/07 00:58:00;;;;;;;33.17;14.13;;;9.80;99.90;;;;;;5019269;28;20155;-86
2024/03/07 01:00:25;;;;;;;30.15;14.50;;;9.70;99.90;;;;;;5038094;28;20033;-86
2024/03/07 01:02:53;;;;;;;34.88;15.20;;;9.80;99.90;;;;;;5042812;28;20021;-85
2024/03/07 01:05:19;;;;;;;31.98;13.80;;;9.70;99.90;;;;;;5025607;28;20035;-85
2024/03/07 01:07:48;;;;;;;33.15;15.13;;;9.80;99.90;;;;;;5012256;28;20032;-86
2024/03/07 01:10:16;;;;;;;31.58;14.38;;;9.70;99.90;;;;;;5005600;28;20491;-84
2024/03/07 01:12:43;;;;;;;30.50;14.10;;;9.70;99.90;;;;;;5013598;28;20033;-85
2024/03/07 01:15:11;;;;;;;29.38;14.88;;;9.70;99.90;;;;;;5010535;28;20018;-85
2024/03/07 01:17:37;;;;;;;37.85;15.18;;;9.70;99.90;;;;;;5027086;28;20208;-84
2024/03/07 01:20:02;;;;;;;34.33;14.02;;;9.80;99.90;;;;;;5015130;28;20131;-84
2024/03/07 01:22:28;;;;;;;33.42;16.00;;;9.80;99.90;;;;;;5023040;28;20025;-84
2024/03/07 01:24:54;;;;;;;32.28;15.60;;;9.80;99.90;;;;;;5023196;28;20030;-85
2024/03/07 01:27:20;;;;;;;41.63;15.40;;;9.70;99.90;;;;;;5017386;28;20029;-85
2024/03/07 01:29:45;;;;;;;34.75;15.90;;;9.70;99.90;;;;;;5013813;28;20029;-86
2024/03/07 01:32:11;;;;;;;31.73;13.70;;;9.70;99.90;;;;;;5013557;28;20021;-85
2024/03/07 01:34:37;;;;;;;33.28;15.15;;;9.80;99.90;;;;;;5016810;28;20074;-85
2024/03/07 01:37:02;;;;;;;29.98;14.68;;;9.80;99.90;;;;;;5016431;28;20037;-85
2024/03/07 01:39:28;;;;;;;31.58;14.60;;;9.70;99.90;;;;;;5018381;28;20025;-85
2024/03/07 01:41:54;;;;;;;32.97;15.07;;;9.70;99.90;;;;;;5020722;28;20021;-86
2024/03/07 01:44:19;;;;;;;30.15;14.88;;;9.70;99.90;;;;;;5014251;28;20045;-86
2024/03/07 01:46:45;;;;;;;33.33;16.13;;;9.70;99.90;;;;;;5012434;28;20028;-86
2024/03/07 01:49:11;;;;;;;32.88;15.88;;;9.70;99.90;;;;;;5039184;28;20437;-86
2024/03/07 01:51:38;;;;;;;35.38;15.43;;;9.70;99.90;;;;;;5022087;28;20152;-87
2024/03/07 01:54:06;;;;;;;32.53;14.63;;;9.70;99.90;;;;;;5027839;28;20093;-86
2024/03/07 01:56:32;;;;;;;34.40;15.80;;;9.70;99.90;;;;;;5014267;28;20024;-85
2024/03/07 01:59:01;;;;;;;32.42;15.55;;;9.70;99.90;;;;;;5015469;28;20487;-86
2024/03/07 02:01:27;;;;;;;36.50;15.80;;;9.70;99.90;;;;;;5030122;28;20627;-86
2024/03/07 02:03:53;;;;;;;39.90;16.92;;;9.70;99.90;;;;;;5031312;28;20570;-86
2024/03/07 02:06:19;;;;;;;37.60;16.58;;;9.70;99.90;;;;;;5015845;28;20029;-86
2024/03/07 02:08:45;;;;;;;31.90;16.58;;;9.70;99.90;;;;;;5012985;28;20029;-86
2024/03/07 02:11:10;;;;;;;38.42;17.13;;;9.70;99.90;;;;;;5010701;28;20026;-87
2024/03/07 02:13:36;;;;;;;39.78;17.25;;;9.70;99.90;;;;;;5023940;28;20051;-86
2024/03/07 02:16:02;;;;;;;38.88;16.13;;;9.70;99.90;;;;;;5038068;28;20017;-86
2024/03/07 02:18:28;;;;;;;33.50;16.30;;;9.70;99.90;;;;;;5013690;28;20017;-86
2024/03/07 02:20:54;;;;;;;36.10;15.88;;;9.70;99.90;;;;;;5016178;28;20032;-85
2024/03/07 02:23:20;;;;;;;44.00;18.38;;;9.70;99.90;;;;;;5011245;28;20067;-85
2024/03/07 02:25:46;;;;;;;42.28;18.27;;;9.70;99.90;;;;;;5011000;28;20017;-86
2024/03/07 02:28:11;;;;;;;39.22;17.00;;;9.70;99.90;;;;;;5039645;28;20014;-85
2024/03/07 02:30:37;;;;;;;34.92;17.65;;;9.70;99.90;;;;;;5027707;28;20104;-85
2024/03/07 02:33:06;;;;;;;39.25;17.63;;;9.70;99.90;;;;;;5019798;28;20049;-86
2024/03/07 02:35:35;;;;;;;33.42;16.45;;;9.70;99.90;;;;;;5016268;28;20017;-86
2024/03/07 02:38:05;;;;;;;34.85;14.85;;;9.70;99.90;;;;;;5032430;28;20014;-85
2024/03/07 02:40:31;;;;;;;32.72;17.20;;;9.70;99.90;;;;;;5035961;28;20096;-86
2024/03/07 02:42:57;;;;;;;37.78;18.08;;;9.70;99.90;;;;;;5016597;28;20411;-86
2024/03/07 02:45:23;;;;;;;42.20;18.33;;;9.70;99.90;;;;;;5015398;28;20167;-85
2024/03/07 02:47:49;;;;;;;40.25;18.25;;;9.70;99.90;;;;;;5042184;28;20108;-86
2024/03/07 02:50:14;;;;;;;37.00;15.98;;;9.70;99.90;;;;;;5015987;28;20026;-86
2024/03/07 02:52:40;;;;;;;40.72;19.52;;;9.60;99.90;;;;;;5034354;28;20055;-85
2024/03/07 02:55:10;;;;;;;39.35;18.38;;;9.70;99.90;;;;;;5009791;28;20620;-85
2024/03/07 02:57:36;;;;;;;38.00;17.10;;;9.70;99.90;;;;;;5012869;28;20021;-86
2024/03/07 03:00:13;;;;;;;35.03;17.00;;;9.70;99.90;;;;;;5035345;28;20287;-86
2024/03/07 03:02:39;;;;;;;39.53;18.20;;;9.70;99.90;;;;;;5013824;28;20029;-86
2024/03/07 03:05:08;;;;;;;43.60;19.92;;;9.70;99.90;;;;;;5016823;28;20029;-85
2024/03/07 03:07:33;;;;;;;44.03;19.45;;;9.70;99.90;;;;;;5009855;28;20022;-87
2024/03/07 03:09:59;;;;;;;39.35;18.23;;;9.70;99.90;;;;;;5031993;28;20108;-86
2024/03/07 03:12:25;;;;;;;42.05;20.02;;;9.70;99.90;;;;;;5013662;28;20042;-87
2024/03/07 03:14:53;;;;;;;40.30;19.05;;;9.70;99.90;;;;;;5009435;28;20029;-84
2024/03/07 03:17:19;;;;;;;36.95;18.20;;;9.70;99.90;;;;;;5015232;28;20022;-85
2024/03/07 03:19:44;;;;;;;38.10;17.98;;;9.60;99.90;;;;;;5032271;28;20113;-86
2024/03/07 03:22:11;;;;;;;43.65;20.48;;;9.70;99.90;;;;;;5032588;28;20097;-87
2024/03/07 03:24:36;;;;;;;41.55;20.20;;;9.70;99.90;;;;;;5008631;28;20117;-86
2024/03/07 03:27:02;;;;;;;46.22;20.13;;;9.70;99.90;;;;;;5040691;28;20037;-85
2024/03/07 03:29:28;;;;;;;43.83;20.98;;;9.70;99.90;;;;;;5013621;28;20113;-85
2024/03/07 03:31:55;;;;;;;46.63;20.42;;;9.60;99.90;;;;;;5010194;28;20019;-86
2024/03/07 03:34:20;;;;;;;44.85;20.95;;;9.60;99.90;;;;;;5004044;28;20025;-86
2024/03/07 03:36:46;;;;;;;41.50;19.23;;;9.60;99.90;;;;;;5011005;28;20395;-85
2024/03/07 03:39:13;;;;;;;43.33;21.20;;;9.60;99.90;;;;;;5009525;28;20356;-86
2024/03/07 03:41:38;;;;;;;43.75;20.98;;;9.60;99.90;;;;;;5016958;28;20017;-85
2024/03/07 03:44:04;;;;;;;45.50;21.58;;;9.60;99.90;;;;;;5012718;28;20041;-86
2024/03/07 03:46:29;;;;;;;47.25;22.45;;;9.60;99.90;;;;;;5015045;28;20164;-85
2024/03/07 03:48:55;;;;;;;50.13;21.75;;;9.60;99.90;;;;;;5004941;28;20084;-86
2024/03/07 03:51:21;;;;;;;48.38;21.83;;;9.60;99.90;;;;;;5027507;28;20030;-86
2024/03/07 03:53:47;;;;;;;45.35;21.88;;;9.60;99.90;;;;;;5016831;28;20498;-85
2024/03/07 03:56:13;;;;;;;46.78;22.13;;;9.60;99.90;;;;;;5009964;28;20040;-86
2024/03/07 03:58:40;;;;;;;42.28;22.10;;;9.60;99.90;;;;;;5008720;28;20033;-85
2024/03/07 04:01:08;;;;;;;47.90;22.00;;;9.60;99.90;;;;;;4996461;28;20468;-86
2024/03/07 04:03:33;;;;;;;51.15;23.38;;;9.60;99.90;;;;;;5006059;28;20467;-86
2024/03/07 04:05:59;;;;;;;53.63;21.52;;;9.60;99.90;;;;;;5010235;28;20071;-86
2024/03/07 04:08:24;;;;;;;47.97;22.73;;;9.60;99.90;;;;;;5020094;28;20010;-86
2024/03/07 04:10:50;;;;;;;50.38;22.45;;;9.60;99.90;;;;;;5014162;28;20026;-85
2024/03/07 04:13:15;;;;;;;47.58;22.52;;;9.60;99.90;;;;;;5010563;28;20022;-86
2024/03/07 04:15:41;;;;;;;55.15;23.38;;;9.60;99.90;;;;;;5004418;28;20537;-86
2024/03/07 04:18:07;;;;;;;48.25;22.05;;;9.60;99.90;;;;;;5025446;28;20591;-86
2024/03/07 04:20:32;;;;;;;51.08;23.25;;;9.60;99.90;;;;;;5022890;28;20052;-85
2024/03/07 04:22:58;;;;;;;51.35;22.92;;;9.60;99.90;;;;;;5021931;28;20049;-85
2024/03/07 04:25:25;;;;;;;49.50;23.27;;;9.60;99.90;;;;;;5000876;28;20105;-85
2024/03/07 04:27:51;;;;;;;54.25;23.92;;;9.60;99.90;;;;;;5031857;28;20387;-85
2024/03/07 04:30:16;;;;;;;47.03;23.35;;;9.60;99.90;;;;;;5004251;28;20447;-85
2024/03/07 04:32:42;;;;;;;51.13;23.42;;;9.60;99.90;;;;;;5025171;28;20021;-86
2024/03/07 04:35:10;;;;;;;46.20;23.88;;;9.60;99.90;;;;;;5026096;28;20030;-86
2024/03/07 04:37:38;;;;;;;55.35;23.30;;;9.60;99.90;;;;;;5013692;28;20013;-86
2024/03/07 04:40:15;;;;;;;54.67;24.73;;;9.60;99.90;;;;;;5009707;28;20029;-85
2024/03/07 04:42:42;;;;;;;51.58;23.60;;;9.60;99.90;;;;;;5015273;28;20026;-86
2024/03/07 04:45:10;;;;;;;55.45;24.08;;;9.60;99.90;;;;;;5027840;28;20024;-86
2024/03/07 04:47:36;;;;;;;52.85;23.50;;;9.60;99.90;;;;;;5026259;28;20495;-86
2024/03/07 04:50:02;;;;;;;51.63;24.98;;;9.60;99.90;;;;;;5028116;28;20021;-86
2024/03/07 04:52:27;;;;;;;47.38;22.55;;;9.60;99.90;;;;;;5039436;28;20134;-86
2024/03/07 04:54:53;;;;;;;48.83;22.88;;;9.60;99.90;;;;;;5019772;28;20021;-85
2024/03/07 04:57:19;;;;;;;55.25;23.33;;;9.50;99.90;;;;;;5021040;28;20029;-86
2024/03/07 04:59:44;;;;;;;47.85;22.70;;;9.60;99.90;;;;;;5040558;28;20021;-86
2024/03/07 05:02:10;;;;;;;49.30;23.85;;;9.60;99.90;;;;;;5015152;28;20239;-86
2024/03/07 05:04:35;;;;;;;45.60;22.15;;;9.60;99.90;;;;;;5020264;28;20049;-86
2024/03/07 05:07:01;;;;;;;54.20;23.50;;;9.50;99.90;;;;;;5016141;28;20029;-86
2024/03/07 05:09:28;;;;;;;48.20;22.95;;;9.50;99.90;;;;;;5036346;28;20068;-85
2024/03/07 05:11:54;;;;;;;50.33;23.02;;;9.50;99.90;;;;;;5026043;28;20600;-86
2024/03/07 05:14:21;;;;;;;50.33;22.20;;;9.50;99.90;;;;;;5016091;28;20021;-86
2024/03/07 05:17:04;;;;;;;52.92;23.77;;;9.50;99.90;;;;;;5042861;28;20108;-86
2024/03/07 05:19:33;;;;;;;47.13;23.35;;;9.60;99.90;;;;;;5009733;28;20033;-85
2024/03/07 05:21:59;;;;;;;51.28;23.58;;;9.50;99.90;;;;;;5017955;28;20083;-85
2024/03/07 05:24:24;;;;;;;54.03;23.73;;;9.50;99.90;;;;;;5017887;28;20556;-86
2024/03/07 05:26:51;;;;;;;52.42;24.08;;;9.60;99.90;;;;;;5035233;28;20032;-86
2024/03/07 05:29:17;;;;;;;48.72;23.15;;;9.50;99.90;;;;;;5016228;28;20017;-86
2024/03/07 05:31:46;;;;;;;57.38;23.42;;;9.50;99.90;;;;;;5022985;28;20026;-85
2024/03/07 05:34:13;;;;;;;53.30;22.77;;;9.50;99.90;;;;;;5022014;28;20375;-86
2024/03/07 05:36:47;;;;;;;48.85;21.67;;;9.50;99.90;;;;;;5024161;28;20022;-86
2024/03/07 05:39:14;;;;;;;58.00;23.52;;;9.50;99.90;;;;;;5045961;28;20032;-86
2024/03/07 05:41:48;;;;;;;54.90;23.00;;;9.50;99.90;;;;;;5034386;28;20028;-87
2024/03/07 05:44:14;;;;;;;48.65;22.35;;;9.50;99.90;;;;;;5012440;28;20060;-85
2024/03/07 05:46:46;;;;;;;56.10;23.70;;;9.50;99.90;;;;;;5033883;28;20488;-87
2024/03/07 05:49:16;;;;;;;46.90;22.42;;;9.50;99.90;;;;;;5015655;28;20036;-85
2024/03/07 05:51:44;;;;;;;;;;;9.50;99.90;;;;;;5010565;28;20391;-86
2024/03/07 05:54:12;;;;;;;52.95;20.80;;;9.50;99.90;;;;;;5036192;28;19909;-86
2024/03/07 05:56:39;;;;;;;46.58;22.13;;;9.50;99.90;;;;;;5035059;28;20022;-85
2024/03/07 05:59:07;;;;;;;48.90;23.35;;;9.50;99.90;;;;;;5020982;28;20068;-85
2024/03/07 06:01:36;;;;;;;47.78;22.98;;;9.50;99.90;;;;;;5015440;28;20029;-86
2024/03/07 06:04:06;;;;;;;46.53;21.70;;;9.50;99.90;;;;;;5019466;28;20028;-86
2024/03/07 06:06:36;;;;;;;51.25;22.35;;;9.50;99.90;;;;;;5009000;28;20027;-86
2024/03/07 06:09:07;;;;;;;46.47;21.53;;;9.50;99.90;;;;;;5033915;28;20053;-86
2024/03/07 06:11:36;;;;;;;49.72;22.63;;;9.50;99.90;;;;;;5012969;28;20295;-86
2024/03/07 06:14:03;;;;;;;50.83;22.48;;;9.50;99.90;;;;;;5026393;28;20037;-85
2024/03/07 06:16:35;;;;;;;48.72;21.83;;;9.50;99.90;;;;;;5029035;28;20021;-86
2024/03/07 06:19:04;;;;;;;47.75;21.15;;;9.50;99.90;;;;;;5025859;28;20171;-87
2024/03/07 06:21:32;;;;;;;50.45;22.33;;;9.50;99.90;;;;;;5031954;28;20050;-85
2024/03/07 06:24:02;;;;;;;53.38;22.65;;;9.50;99.90;;;;;;5011287;28;20032;-85
2024/03/07 06:29:08;;;;;;;51.17;22.88;;;9.50;99.90;;;;;;5029719;28;20446;-86
2024/03/07 06:31:34;;;;;;;51.67;22.65;;;9.50;99.90;;;;;;5028143;28;20022;-86
2024/03/07 06:34:00;;;;;;;42.63;20.65;;;9.50;99.90;;;;;;5016800;28;20071;-85
2024/03/07 06:36:26;;;;;;;46.67;21.85;;;9.50;99.90;;;;;;5009647;28;20017;-86
2024/03/07 06:38:51;;;;;;;49.38;23.55;;;9.50;99.90;;;;;;5036660;28;20554;-86
2024/03/07 06:41:17;;;;;;;55.97;22.55;;;9.50;99.90;;;;;;5009964;28;20027;-86
2024/03/07 06:43:46;;;;;;;47.25;22.60;;;9.50;99.90;;;;;;5034299;28;20025;-85
2024/03/07 06:46:12;;;;;;;49.08;21.23;;;9.50;99.90;;;;;;5017900;28;20017;-86
2024/03/07 06:48:40;;;;;;;48.63;21.67;;;9.50;99.90;;;;;;5021587;28;20025;-86
2024/03/07 06:51:05;;;;;;;49.30;22.35;;;9.50;99.90;;;;;;5015166;28;20036;-86
2024/03/07 06:53:31;;;;;;;46.60;21.80;;;9.50;99.90;;;;;;5022236;28;20382;-85
2024/03/07 06:55:57;;;;;;;57.78;23.83;;;9.50;99.90;;;;;;5027976;28;20037;-86
2024/03/07 06:58:22;;;;;;;52.95;23.10;;;9.50;99.90;;;;;;5008045;28;20030;-85
2024/03/07 07:00:51;;;;;;;54.70;23.35;;;9.50;99.90;;;;;;5011078;28;20112;-86
2024/03/07 07:03:19;;;;;;;53.90;23.00;;;9.50;99.90;;;;;;5032713;28;20494;-86
2024/03/07 07:05:45;;;;;;;49.67;22.02;;;9.50;99.90;;;;;;5008211;28;20030;-86
2024/03/07 07:08:11;;;;;;;51.17;23.05;;;9.50;99.90;;;;;;5026843;28;20024;-86
2024/03/07 07:10:37;;;;;;;50.78;23.45;;;9.50;99.90;;;;;;5017180;28;20028;-85
2024/03/07 07:13:04;;;;;;;49.70;21.90;;;9.50;99.90;;;;;;5015435;28;20026;-86
2024/03/07 07:15:30;;;;;;;49.85;23.20;;;9.50;99.90;;;;;;5017520;28;20018;-86
2024/03/07 07:17:55;;;;;;;51.55;22.65;;;9.50;99.90;;;;;;5033219;28;20036;-86
2024/03/07 07:20:23;;;;;;;48.63;22.92;;;9.50;99.90;;;;;;5017641;28;20052;-85
2024/03/07 07:22:49;;;;;;;50.10;22.88;;;9.50;99.90;;;;;;5020284;28;20033;-85
2024/03/07 07:25:20;;;;;;;57.92;24.67;;;9.50;99.90;;;;;;5005252;28;20026;-86
2024/03/07 07:27:46;;;;;;;47.30;22.65;;;9.50;99.90;;;;;;5009767;28;20021;-86
2024/03/07 07:30:14;;;;;;;48.53;23.15;;;9.50;99.90;;;;;;5009745;28;20025;-85
2024/03/07 07:32:41;;;;;;;52.65;23.42;;;9.50;99.90;;;;;;5016654;28;20933;-86
2024/03/07 07:35:09;;;;;;;52.95;22.92;;;9.50;99.90;;;;;;5007396;28;20025;-85
2024/03/07 07:37:36;;;;;;;53.58;23.85;;;9.50;99.90;;;;;;5014906;28;20053;-86
2024/03/07 07:40:02;;;;;;;52.67;23.00;;;9.50;99.90;;;;;;5036322;28;20108;-86
2024/03/07 07:42:28;;;;;;;49.40;23.13;;;9.50;99.90;;;;;;5015563;28;20584;-86
2024/03/07 07:44:53;;;;;;;52.08;23.98;;;9.50;99.90;;;;;;5010613;28;20034;-86
2024/03/07 07:47:19;;;;;;;52.25;23.45;;;9.50;99.90;;;;;;5029494;28;20018;-86
2024/03/07 07:49:44;;;;;;;59.38;24.60;;;9.50;99.90;;;;;;5043942;28;20036;-86
2024/03/07 07:52:11;;;;;;;54.30;22.33;;;9.50;99.90;;;;;;5010560;28;20026;-85
2024/03/07 07:54:42;;;;;;;51.95;24.75;;;9.50;99.90;;;;;;5012092;28;20033;-86
2024/03/07 07:57:09;;;;;;;53.97;23.50;;;9.40;99.90;;;;;;5007606;28;20112;-85
2024/03/07 07:59:35;;;;;;;52.63;22.55;;;9.50;99.90;;;;;;5031986;28;20032;-87
2024/03/07 08:02:01;;;;;;;54.03;24.85;;;9.50;99.90;;;;;;5029409;28;20529;-85
2024/03/07 08:04:26;;;;;;;56.42;23.63;;;9.50;99.90;;;;;;5025917;28;20025;-86
2024/03/07 08:06:52;;;;;;;50.58;22.48;;;9.50;99.90;;;;;;5001491;28;20052;-86
2024/03/07 08:09:18;;;;;;;54.55;23.10;;;9.50;99.90;;;;;;5009493;28;20048;-86
2024/03/07 08:11:43;;;;;;;52.92;23.23;;;9.50;99.90;;;;;;5036371;28;20014;-86
2024/03/07 08:14:09;;;;;;;52.80;23.63;;;9.50;99.90;;;;;;5012041;28;20006;-85
2024/03/07 08:16:35;;;;;;;55.17;24.45;;;9.50;99.90;;;;;;5022610;28;20009;-86
2024/03/07 08:19:00;;;;;;;53.42;23.15;;;9.50;99.90;;;;;;5030440;28;20076;-87
2024/03/07 08:21:26;;;;;;;55.92;25.00;;;9.50;99.90;;;;;;5010451;28;20021;-86
2024/03/07 08:23:51;;;;;;;53.60;25.13;;;9.50;99.90;;;;;;5028362;28;20459;-87
2024/03/07 08:26:17;;;;;;;58.40;23.98;;;9.50;99.90;;;;;;5006481;28;20533;-87
2024/03/07 08:28:42;;;;;;;54.80;24.40;;;9.50;99.90;;;;;;5014879;28;20108;-86
2024/03/07 08:31:09;;;;;;;60.60;23.67;;;9.50;99.90;;;;;;5018180;28;20032;-86
2024/03/07 08:33:35;;;;;;;54.50;23.17;;;9.50;99.90;;;;;;5013235;28;20062;-87
2024/03/07 08:36:00;;;;;;;55.25;24.33;;;9.50;99.90;;;;;;5015284;28;20024;-86
2024/03/07 08:38:26;;;;;;;57.67;25.70;;;9.50;99.90;;;;;;5011605;28;20014;-87
2024/03/07 08:40:52;;;;;;;60.92;24.83;;;9.50;99.90;;;;;;5009641;28;20364;-87
2024/03/07 08:43:18;;;;;;;56.72;25.40;;;9.50;99.90;;;;;;5013854;28;20025;-87
2024/03/07 08:45:44;;;;;;;61.50;25.10;;;9.50;99.90;;;;;;5020273;28;20382;-87
2024/03/07 08:48:09;;;;;;;56.58;23.58;;;9.50;99.90;;;;;;5016729;28;20025;-86
2024/03/07 08:50:37;;;;;;;59.03;25.25;;;9.50;99.90;;;;;;5029156;28;20463;-87
2024/03/07 08:53:04;;;;;;;53.15;23.98;;;9.50;99.90;;;;;;5029965;28;20024;-86
2024/03/07 08:55:30;;;;;;;63.63;25.90;;;9.50;99.90;;;;;;5010055;28;20017;-86
2024/03/07 08:57:56;;;;;;;58.70;24.63;;;9.50;99.90;;;;;;5027372;28;20100;-86
2024/03/07 09:00:23;;;;;;;66.90;26.38;;;9.50;99.90;;;;;;5015859;28;20028;-86
2024/03/07 09:02:59;;;;;;;66.68;25.38;;;9.50;99.90;;;;;;5010180;28;20033;-86
2024/03/07 09:05:25;;;;;;;58.92;26.10;;;9.50;99.90;;;;;;5024542;28;20033;-87
2024/03/07 09:07:52;;;;;;;63.38;26.40;;;9.50;99.90;;;;;;5005358;28;20112;-85
2024/03/07 09:10:18;;;;;;;69.93;27.88;;;9.50;99.90;;;;;;5014731;28;20030;-86
2024/03/07 09:12:44;;;;;;;67.57;28.02;;;9.50;99.90;;;;;;5016399;28;20072;-85
2024/03/07 09:15:11;;;;;;;63.35;25.73;;;9.50;99.90;;;;;;5032863;28;20132;-85
2024/03/07 09:17:37;;;;;;;59.40;25.65;;;9.50;99.90;;;;;;5035529;28;20491;-86
2024/03/07 09:20:14;;;;;;;61.97;25.48;;;9.50;99.90;;;;;;5029114;28;20109;-86
2024/03/07 09:22:41;;;;;;;71.43;26.58;;;9.50;99.90;;;;;;5006655;28;20026;-85
2024/03/07 09:25:08;;;;;;;70.30;26.60;;;9.50;99.90;;;;;;5023205;28;20021;-86
2024/03/07 09:27:33;;;;;;;68.30;27.10;;;9.50;99.90;;;;;;5007517;28;20028;-86
2024/03/07 09:29:59;;;;;;;71.22;27.67;;;9.50;99.90;;;;;;5013415;28;20718;-85
2024/03/07 09:32:24;;;;;;;72.90;28.50;;;9.50;99.90;;;;;;5008362;28;20705;-86
2024/03/07 09:34:50;;;;;;;65.57;27.60;;;9.50;99.90;;;;;;5006651;28;20399;-85
2024/03/07 09:37:15;;;;;;;74.55;28.65;;;9.50;99.90;;;;;;5031725;28;20026;-86
2024/03/07 09:39:41;;;;;;;71.43;28.65;;;9.40;99.90;;;;;;5014375;28;20041;-86
2024/03/07 09:42:09;;;;;;;67.15;27.33;;;9.50;99.90;;;;;;5010126;28;20060;-86
2024/03/07 09:44:39;;;;;;;67.93;28.35;;;9.50;99.90;;;;;;5034528;28;20108;-87
2024/03/07 09:47:05;;;;;;;70.28;27.83;;;9.50;99.90;;;;;;5029531;28;20025;-86
2024/03/07 09:49:33;;;;;;;71.00;27.73;;;9.50;99.90;;;;;;5035927;28;20140;-85
2024/03/07 09:52:00;;;;;;;67.35;27.95;;;9.50;99.90;;;;;;5029326;28;20028;-86
2024/03/07 09:54:26;;;;;;;70.03;28.42;;;9.50;99.90;;;;;;5043121;28;20594;-86
2024/03/07 09:56:58;;;;;;;81.75;29.85;;;9.50;99.90;;;;;;5031020;28;20091;-86
2024/03/07 09:59:28;;;;;;;63.22;26.98;;;9.50;99.90;;;;;;5017575;28;20034;-86
2024/03/07 10:01:57;;;;;;;69.85;27.55;;;9.50;99.90;;;;;;5041124;28;20041;-87
2024/03/07 10:04:34;;;;;;;59.25;26.27;;;9.50;99.90;;;;;;5015598;28;20025;-85
2024/03/07 10:07:01;;;;;;;70.65;29.52;;;9.60;99.90;;;;;;5014645;28;20041;-85
2024/03/07 10:09:29;;;;;;;72.32;28.00;;;9.50;99.90;;;;;;5017595;28;20037;-86
2024/03/07 10:11:58;;;;;;;75.85;30.48;;;9.50;99.90;;;;;;5035754;28;20490;-86
2024/03/07 10:14:24;;;;;;;67.22;26.80;;;9.50;99.90;;;;;;5011551;28;20029;-86
2024/03/07 10:16:53;;;;;;;63.20;28.15;;;9.50;99.90;;;;;;5008819;28;20018;-87
2024/03/07 10:19:19;;;;;;;71.93;28.88;;;9.50;99.90;;;;;;5013789;28;20017;-87
2024/03/07 10:21:44;;;;;;;77.03;29.92;;;9.50;99.90;;;;;;5009226;28;20014;-87
2024/03/07 10:24:11;;;;;;;68.10;30.08;;;9.50;99.90;;;;;;5038142;28;20037;-88
2024/03/07 10:26:40;;;;;;;67.78;28.55;;;9.50;99.90;;;;;;5012807;28;20025;-85
2024/03/07 10:29:08;;;;;;;73.80;30.58;;;9.50;99.90;;;;;;5038612;28;20025;-86
2024/03/07 10:31:36;;;;;;;70.10;30.33;;;9.50;99.90;;;;;;5013408;28;20021;-85
2024/03/07 10:34:03;;;;;;;70.55;30.48;;;9.50;99.90;;;;;;5014721;28;20025;-85
2024/03/07 10:36:32;;;;;;;68.22;28.55;;;9.50;99.90;;;;;;5012082;28;20824;-86
2024/03/07 10:39:12;;;;;;;67.15;28.40;;;9.50;99.90;;;;;;5018821;28;20026;-85
2024/03/07 10:41:47;;;;;;;64.93;27.83;;;9.50;99.90;;;;;;5010981;28;20112;-87
2024/03/07 10:44:25;;;;;;;70.28;28.65;;;9.50;99.90;;;;;;5043038;28;20368;-86
2024/03/07 10:47:00;;;;;;;69.18;28.27;;;9.50;99.90;;;;;;5005986;28;20025;-86
2024/03/07 10:49:28;;;;;;;67.88;28.88;;;9.50;99.90;;;;;;5015438;28;20601;-86
2024/03/07 10:52:10;;;;;;;70.70;29.25;;;9.50;99.90;;;;;;5039029;28;20022;-86
2024/03/07 10:54:49;;;;;;;71.22;29.65;;;9.50;99.90;;;;;;5010360;28;20038;-87
2024/03/07 10:57:34;;;;;;;70.93;30.42;;;9.50;99.90;;;;;;5038149;28;20014;-86
2024/03/07 11:00:24;;;;;;;74.38;30.52;;;9.60;99.90;;;;;;5016585;28;20041;-85
2024/03/07 11:02:53;;;;;;;74.60;29.48;;;9.60;99.90;;;;;;5019119;28;20021;-86
2024/03/07 11:05:19;;;;;;;70.60;30.05;;;9.60;99.90;;;;;;5032979;28;20475;-87
2024/03/07 11:07:46;;;;;;;80.95;31.70;;;9.60;99.90;;;;;;5007449;28;20025;-86
2024/03/07 11:10:17;;;;;;;72.28;29.38;;;9.60;99.90;;;;;;5010327;28;20030;-86
2024/03/07 11:12:45;;;;;;;70.85;29.10;;;9.60;99.90;;;;;;5008528;28;20096;-85
2024/03/07 11:15:14;;;;;;;68.82;30.52;;;9.60;99.90;;;;;;5030140;28;20071;-85
2024/03/07 11:17:43;;;;;;;72.75;30.42;;;9.60;99.90;;;;;;5009626;28;20022;-86
2024/03/07 11:20:25;;;;;;;72.88;30.65;;;9.60;99.90;;;;;;5011970;28;20026;-86
2024/03/07 11:22:55;;;;;;;65.28;29.48;;;9.60;99.90;;;;;;5033436;28;20025;-85
2024/03/07 11:25:21;;;;;;;62.88;28.83;;;9.60;99.90;;;;;;5016104;28;20120;-86
2024/03/07 11:27:58;;;;;;;67.60;30.92;;;9.60;99.90;;;;;;5013963;28;20591;-86
2024/03/07 11:30:24;;;;;;;74.50;32.47;;;9.60;99.90;;;;;;5014699;28;20420;-85
2024/03/07 11:32:53;;;;;;;73.03;32.10;;;9.60;99.90;;;;;;5012947;28;20506;-86
2024/03/07 11:35:28;;;;;;;73.15;32.20;;;9.60;99.90;;;;;;4999759;28;20099;-86
2024/03/07 11:37:59;;;;;;;79.95;29.88;;;9.60;99.90;;;;;;5013508;28;20160;-87
2024/03/07 11:40:26;;;;;;;74.05;31.10;;;9.60;99.90;;;;;;5029881;28;20040;-86
2024/03/07 11:42:53;;;;;;;66.03;31.17;;;9.60;99.90;;;;;;5015437;28;20026;-86
2024/03/07 11:45:26;;;;;;;68.88;30.77;;;9.60;99.90;;;;;;5010898;28;20510;-86
2024/03/07 11:48:06;;;;;;;79.50;31.38;;;9.60;99.90;;;;;;5016349;28;20022;-86
2024/03/07 11:50:34;;;;;;;75.50;32.53;;;9.60;99.90;;;;;;5010601;28;20026;-84
2024/03/07 11:53:01;;;;;;;67.35;29.60;;;9.60;99.90;;;;;;5015258;28;20092;-87
2024/03/07 11:55:33;;;;;;;73.28;30.27;;;9.60;99.90;;;;;;5024110;28;20048;-85
2024/03/07 11:57:59;;;;;;;68.13;30.50;;;9.60;99.90;;;;;;5018891;28;20025;-85
2024/03/07 12:00:25;;;;;;;64.97;29.98;;;9.60;99.90;;;;;;5009665;28;20124;-86
2024/03/07 12:02:54;;;;;;;77.00;32.85;;;9.60;99.90;;;;;;5030304;28;20029;-85
2024/03/07 12:05:20;;;;;;;69.50;29.42;;;9.60;99.90;;;;;;5016266;28;20026;-86
2024/03/07 12:07:45;;;;;;;76.18;31.45;;;9.60;99.90;;;;;;5007157;28;20080;-86
2024/03/07 12:10:12;;;;;;;67.25;29.63;;;9.60;99.90;;;;;;5012843;28;20079;-86
2024/03/07 12:12:38;;;;;;;65.65;28.60;;;9.60;99.90;;;;;;5005858;28;20410;-86
2024/03/07 12:15:09;;;;;;;70.15;28.80;;;9.50;99.90;;;;;;5024693;28;20079;-87
2024/03/07 12:17:35;;;;;;;79.63;30.67;;;9.50;99.90;;;;;;5006513;28;20462;-87
2024/03/07 12:20:24;;;;;;;64.10;26.45;;;9.60;99.90;;;;;;5006045;28;20057;-85
2024/03/07 12:22:48;;;;;;;70.28;30.27;;;9.60;99.90;;;;;;5027610;28;20032;-87
2024/03/07 12:25:21;;;;;;;64.32;28.48;;;9.60;99.90;;;;;;5036370;28;20024;-88
2024/03/07 12:27:48;;;;;;;68.47;28.85;;;9.60;99.90;;;;;;5006060;28;20033;-86
2024/03/07 12:30:19;;;;;;;70.75;29.58;;;9.60;99.90;;;;;;5011569;28;20084;-86
2024/03/07 12:32:49;;;;;;;73.15;28.67;;;9.60;99.90;;;;;;5009927;28;20056;-86
2024/03/07 12:35:15;;;;;;;69.85;28.25;;;9.60;99.90;;;;;;5008891;28;20557;-86
2024/03/07 12:37:42;;;;;;;75.75;29.70;;;9.50;99.90;;;;;;5007703;28;20025;-86
2024/03/07 12:40:19;;;;;;;70.22;29.27;;;9.60;99.90;;;;;;5017425;28;20087;-88
2024/03/07 12:42:48;;;;;;;75.03;29.42;;;9.60;99.90;;;;;;5030674;28;20022;-86